sensor_id;sensor_type;location;lat;lon;timestamp;pressure;altitude;pressure_sealevel;temperature;humidity
63343;BME280;49465;57.664;39.686;2023-06-26T00:01:43;100480.47;;;17.10;47.77
63343;BME280;49465;57.664;39.686;2023-06-26T00:04:12;100481.03;;;17.04;47.29
63343;BME280;49465;57.664;39.686;2023-06-26T00:06:40;100474.72;;;16.86;47.84
63343;BME280;49465;57.664;39.686;2023-06-26T00:09:10;100481.94;;;16.93;47.32
63343;BME280;49465;57.664;39.686;2023-06-26T00:11:41;100478.75;;;16.90;47.31
63343;BME280;49465;57.664;39.686;2023-06-26T00:14:09;100483.75;;;16.83;48.93
63343;BME280;49465;57.664;39.686;2023-06-26T00:16:36;100476.13;;;16.69;48.22
63343;BME280;49465;57.664;39.686;2023-06-26T00:19:07;100469.47;;;16.74;48.08
63343;BME280;49465;57.664;39.686;2023-06-26T00:21:34;100473.47;;;16.59;48.00
63343;BME280;49465;57.664;39.686;2023-06-26T00:24:06;100472.06;;;16.55;47.84
63343;BME280;49465;57.664;39.686;2023-06-26T00:26:40;100470.28;;;16.65;47.91
63343;BME280;49465;57.664;39.686;2023-06-26T00:29:10;100470.69;;;16.60;48.09
63343;BME280;49465;57.664;39.686;2023-06-26T00:31:42;100464.94;;;16.55;48.14
63343;BME280;49465;57.664;39.686;2023-06-26T00:34:11;100468.19;;;16.38;48.05
63343;BME280;49465;57.664;39.686;2023-06-26T00:36:40;100466.44;;;16.48;48.40
63343;BME280;49465;57.664;39.686;2023-06-26T00:39:14;100468.66;;;16.43;48.54
63343;BME280;49465;57.664;39.686;2023-06-26T00:41:43;100468.06;;;16.39;49.21
63343;BME280;49465;57.664;39.686;2023-06-26T00:44:15;100464.72;;;16.37;48.64
63343;BME280;49465;57.664;39.686;2023-06-26T00:46:54;100458.72;;;16.35;48.56
63343;BME280;49465;57.664;39.686;2023-06-26T00:49:26;100457.78;;;16.15;48.57
63343;BME280;49465;57.664;39.686;2023-06-26T00:51:55;100461.31;;;16.26;48.05
63343;BME280;49465;57.664;39.686;2023-06-26T00:54:27;100464.28;;;16.32;47.77
63343;BME280;49465;57.664;39.686;2023-06-26T00:56:56;100465.53;;;16.07;48.53
63343;BME280;49465;57.664;39.686;2023-06-26T00:59:25;100471.72;;;16.17;48.38
63343;BME280;49465;57.664;39.686;2023-06-26T01:01:52;100465.22;;;16.00;48.91
63343;BME280;49465;57.664;39.686;2023-06-26T01:04:18;100470.75;;;15.97;49.18
63343;BME280;49465;57.664;39.686;2023-06-26T01:06:51;100471.38;;;16.11;48.78
63343;BME280;49465;57.664;39.686;2023-06-26T01:09:21;100461.56;;;15.92;48.98
63343;BME280;49465;57.664;39.686;2023-06-26T01:11:51;100464.09;;;16.03;49.22
63343;BME280;49465;57.664;39.686;2023-06-26T01:14:21;100465.22;;;16.00;49.71
63343;BME280;49465;57.664;39.686;2023-06-26T01:16:50;100468.09;;;15.97;49.52
63343;BME280;49465;57.664;39.686;2023-06-26T01:19:39;100468.91;;;16.09;48.68
63343;BME280;49465;57.664;39.686;2023-06-26T01:22:34;100471.38;;;16.32;47.67
63343;BME280;49465;57.664;39.686;2023-06-26T01:27:55;100466.91;;;15.80;49.34
63343;BME280;49465;57.664;39.686;2023-06-26T01:30:25;100462.13;;;15.74;50.10
63343;BME280;49465;57.664;39.686;2023-06-26T01:33:02;100463.66;;;15.77;50.41
63343;BME280;49465;57.664;39.686;2023-06-26T01:35:29;100474.47;;;15.74;50.45
63343;BME280;49465;57.664;39.686;2023-06-26T01:38:18;100465.97;;;16.12;49.34
63343;BME280;49465;57.664;39.686;2023-06-26T01:40:49;100467.31;;;15.86;50.69
63343;BME280;49465;57.664;39.686;2023-06-26T01:43:29;100465.66;;;15.85;50.79
63343;BME280;49465;57.664;39.686;2023-06-26T01:46:05;100473.47;;;15.86;51.81
63343;BME280;49465;57.664;39.686;2023-06-26T01:48:59;100474.97;;;16.00;51.22
63343;BME280;49465;57.664;39.686;2023-06-26T01:51:32;100470.31;;;15.92;51.20
63343;BME280;49465;57.664;39.686;2023-06-26T01:54:02;100468.44;;;15.83;51.87
63343;BME280;49465;57.664;39.686;2023-06-26T01:56:32;100477.53;;;15.90;52.85
63343;BME280;49465;57.664;39.686;2023-06-26T01:59:00;100469.97;;;15.86;53.05
63343;BME280;49465;57.664;39.686;2023-06-26T02:01:30;100468.72;;;15.80;52.61
63343;BME280;49465;57.664;39.686;2023-06-26T02:04:01;100465.91;;;15.81;52.24
63343;BME280;49465;57.664;39.686;2023-06-26T02:06:28;100470.13;;;15.84;52.76
63343;BME280;49465;57.664;39.686;2023-06-26T02:09:00;100471.34;;;16.01;53.66
63343;BME280;49465;57.664;39.686;2023-06-26T02:11:26;100462.38;;;15.92;53.23
63343;BME280;49465;57.664;39.686;2023-06-26T02:13:53;100473.53;;;15.96;52.05
63343;BME280;49465;57.664;39.686;2023-06-26T02:16:22;100473.84;;;16.02;53.22
63343;BME280;49465;57.664;39.686;2023-06-26T02:18:54;100470.81;;;16.28;51.79
63343;BME280;49465;57.664;39.686;2023-06-26T02:21:25;100475.38;;;16.26;53.34
63343;BME280;49465;57.664;39.686;2023-06-26T02:23:52;100476.75;;;16.20;52.95
63343;BME280;49465;57.664;39.686;2023-06-26T02:26:18;100472.75;;;16.26;52.39
63343;BME280;49465;57.664;39.686;2023-06-26T02:28:50;100472.09;;;16.34;53.53
63343;BME280;49465;57.664;39.686;2023-06-26T02:31:17;100470.72;;;16.39;53.17
63343;BME280;49465;57.664;39.686;2023-06-26T02:33:43;100470.06;;;16.47;53.33
63343;BME280;49465;57.664;39.686;2023-06-26T02:36:11;100475.53;;;16.55;54.02
63343;BME280;49465;57.664;39.686;2023-06-26T02:38:37;100474.75;;;16.65;53.96
63343;BME280;49465;57.664;39.686;2023-06-26T02:41:04;100478.25;;;16.75;53.90
63343;BME280;49465;57.664;39.686;2023-06-26T02:43:33;100469.53;;;16.84;53.97
63343;BME280;49465;57.664;39.686;2023-06-26T02:46:03;100481.59;;;17.08;54.23
63343;BME280;49465;57.664;39.686;2023-06-26T02:48:29;100473.63;;;17.08;53.58
63343;BME280;49465;57.664;39.686;2023-06-26T02:50:58;100471.72;;;17.19;53.90
63343;BME280;49465;57.664;39.686;2023-06-26T02:53:24;100472.28;;;17.33;53.08
63343;BME280;49465;57.664;39.686;2023-06-26T02:55:53;100461.69;;;17.52;54.60
63343;BME280;49465;57.664;39.686;2023-06-26T02:58:19;100458.75;;;17.55;54.20
63343;BME280;49465;57.664;39.686;2023-06-26T03:00:46;100459.44;;;17.67;54.08
63343;BME280;49465;57.664;39.686;2023-06-26T03:03:13;100451.34;;;17.78;54.12
63343;BME280;49465;57.664;39.686;2023-06-26T03:05:42;100454.41;;;17.93;54.80
63343;BME280;49465;57.664;39.686;2023-06-26T03:08:10;100467.94;;;18.10;53.47
63343;BME280;49465;57.664;39.686;2023-06-26T03:10:49;100457.75;;;18.52;53.75
63343;BME280;49465;57.664;39.686;2023-06-26T03:13:15;100456.94;;;18.42;54.11
63343;BME280;49465;57.664;39.686;2023-06-26T03:15:46;100456.31;;;18.58;54.07
63343;BME280;49465;57.664;39.686;2023-06-26T03:18:13;100456.53;;;18.74;53.48
63343;BME280;49465;57.664;39.686;2023-06-26T03:20:39;100461.22;;;18.90;53.02
63343;BME280;49465;57.664;39.686;2023-06-26T03:23:06;100467.72;;;19.06;53.00
63343;BME280;49465;57.664;39.686;2023-06-26T03:25:34;100467.72;;;19.24;52.91
63343;BME280;49465;57.664;39.686;2023-06-26T03:28:13;100461.38;;;19.52;52.34
63343;BME280;49465;57.664;39.686;2023-06-26T03:30:39;100467.72;;;19.60;51.63
63343;BME280;49465;57.664;39.686;2023-06-26T03:33:08;100460.75;;;19.77;52.18
63343;BME280;49465;57.664;39.686;2023-06-26T03:35:34;100457.22;;;19.94;51.92
63343;BME280;49465;57.664;39.686;2023-06-26T03:38:07;100461.38;;;20.23;52.02
63343;BME280;49465;57.664;39.686;2023-06-26T03:40:36;100449.94;;;20.30;51.22
63343;BME280;49465;57.664;39.686;2023-06-26T03:43:05;100459.84;;;20.46;51.61
63343;BME280;49465;57.664;39.686;2023-06-26T03:45:31;100453.47;;;20.65;51.75
63343;BME280;49465;57.664;39.686;2023-06-26T03:47:57;100452.53;;;20.83;51.94
63343;BME280;49465;57.664;39.686;2023-06-26T03:50:24;100445.97;;;21.03;51.10
63343;BME280;49465;57.664;39.686;2023-06-26T03:52:50;100452.13;;;21.20;50.13
63343;BME280;49465;57.664;39.686;2023-06-26T03:55:20;100451.84;;;21.40;49.75
63343;BME280;49465;57.664;39.686;2023-06-26T03:57:49;100450.88;;;21.57;50.04
63343;BME280;49465;57.664;39.686;2023-06-26T04:00:16;100456.88;;;21.76;49.08
63343;BME280;49465;57.664;39.686;2023-06-26T04:02:45;100453.88;;;22.03;48.41
63343;BME280;49465;57.664;39.686;2023-06-26T04:05:11;100453.16;;;22.18;48.78
63343;BME280;49465;57.664;39.686;2023-06-26T04:07:38;100453.09;;;22.42;47.76
63343;BME280;49465;57.664;39.686;2023-06-26T04:10:07;100459.72;;;22.63;48.21
63343;BME280;49465;57.664;39.686;2023-06-26T04:12:34;100458.47;;;22.82;48.25
63343;BME280;49465;57.664;39.686;2023-06-26T04:15:07;100470.19;;;23.12;48.19
63343;BME280;49465;57.664;39.686;2023-06-26T04:17:36;100468.53;;;23.34;46.99
63343;BME280;49465;57.664;39.686;2023-06-26T04:20:03;100461.97;;;23.45;46.30
63343;BME280;49465;57.664;39.686;2023-06-26T04:22:33;100458.81;;;23.64;45.67
63343;BME280;49465;57.664;39.686;2023-06-26T04:25:02;100458.31;;;23.84;45.86
63343;BME280;49465;57.664;39.686;2023-06-26T04:27:33;100465.63;;;24.05;45.17
63343;BME280;49465;57.664;39.686;2023-06-26T04:30:00;100468.00;;;24.23;44.88
63343;BME280;49465;57.664;39.686;2023-06-26T04:32:32;100465.59;;;24.43;44.39
63343;BME280;49465;57.664;39.686;2023-06-26T04:35:03;100470.59;;;24.76;43.88
63343;BME280;49465;57.664;39.686;2023-06-26T04:37:33;100468.91;;;24.90;43.34
63343;BME280;49465;57.664;39.686;2023-06-26T04:39:59;100460.75;;;24.98;43.29
63343;BME280;49465;57.664;39.686;2023-06-26T04:42:25;100466.69;;;25.15;43.48
63343;BME280;49465;57.664;39.686;2023-06-26T04:44:54;100471.66;;;25.33;42.54
63343;BME280;49465;57.664;39.686;2023-06-26T04:47:21;100462.13;;;25.52;42.92
63343;BME280;49465;57.664;39.686;2023-06-26T04:49:47;100459.81;;;25.70;42.33
63343;BME280;49465;57.664;39.686;2023-06-26T04:52:16;100455.63;;;25.89;41.94
63343;BME280;49465;57.664;39.686;2023-06-26T04:54:42;100461.19;;;26.09;41.71
63343;BME280;49465;57.664;39.686;2023-06-26T04:57:09;100453.25;;;26.29;41.49
63343;BME280;49465;57.664;39.686;2023-06-26T04:59:38;100463.47;;;26.47;41.28
63343;BME280;49465;57.664;39.686;2023-06-26T05:02:04;100457.59;;;26.65;40.02
63343;BME280;49465;57.664;39.686;2023-06-26T05:04:33;100462.03;;;26.93;40.46
63343;BME280;49465;57.664;39.686;2023-06-26T05:07:00;100464.97;;;27.05;40.14
63343;BME280;49465;57.664;39.686;2023-06-26T05:09:29;100462.53;;;27.23;40.53
63343;BME280;49465;57.664;39.686;2023-06-26T05:11:58;100460.53;;;27.45;39.06
63343;BME280;49465;57.664;39.686;2023-06-26T05:14:33;100459.50;;;27.66;39.05
63343;BME280;49465;57.664;39.686;2023-06-26T05:17:03;100457.44;;;27.88;38.25
63343;BME280;49465;57.664;39.686;2023-06-26T05:19:32;100456.56;;;28.14;39.05
63343;BME280;49465;57.664;39.686;2023-06-26T05:21:59;100453.44;;;28.24;38.68
63343;BME280;49465;57.664;39.686;2023-06-26T05:24:33;100456.28;;;28.56;38.96
63343;BME280;49465;57.664;39.686;2023-06-26T05:27:03;100452.91;;;28.74;38.34
63343;BME280;49465;57.664;39.686;2023-06-26T05:29:33;100457.75;;;28.97;38.39
63343;BME280;49465;57.664;39.686;2023-06-26T05:32:02;100447.56;;;29.06;38.26
63343;BME280;49465;57.664;39.686;2023-06-26T05:34:35;100447.63;;;29.31;38.60
63343;BME280;49465;57.664;39.686;2023-06-26T05:37:08;100454.59;;;29.45;36.86
63343;BME280;49465;57.664;39.686;2023-06-26T05:39:35;100448.03;;;29.60;36.91
63343;BME280;49465;57.664;39.686;2023-06-26T05:42:02;100447.31;;;29.77;36.83
63343;BME280;49465;57.664;39.686;2023-06-26T05:44:32;100452.22;;;30.06;36.53
63343;BME280;49465;57.664;39.686;2023-06-26T05:47:01;100439.69;;;30.11;36.71
63343;BME280;49465;57.664;39.686;2023-06-26T05:49:28;100443.19;;;30.30;35.58
63343;BME280;49465;57.664;39.686;2023-06-26T05:52:00;100446.25;;;30.59;36.05
63343;BME280;49465;57.664;39.686;2023-06-26T05:54:30;100445.31;;;30.65;35.73
63343;BME280;49465;57.664;39.686;2023-06-26T05:56:58;100440.50;;;30.86;34.55
63343;BME280;49465;57.664;39.686;2023-06-26T05:59:25;100443.28;;;30.98;34.87
63343;BME280;49465;57.664;39.686;2023-06-26T06:01:55;100446.97;;;31.15;34.71
63343;BME280;49465;57.664;39.686;2023-06-26T06:04:24;100460.59;;;31.39;34.28
63343;BME280;49465;57.664;39.686;2023-06-26T06:06:51;100447.41;;;31.42;34.10
63343;BME280;49465;57.664;39.686;2023-06-26T06:09:18;100451.56;;;31.57;34.19
63343;BME280;49465;57.664;39.686;2023-06-26T06:11:44;100448.88;;;31.68;34.27
63343;BME280;49465;57.664;39.686;2023-06-26T06:14:14;100461.72;;;31.97;33.35
63343;BME280;49465;57.664;39.686;2023-06-26T06:16:43;100459.88;;;32.09;33.58
63343;BME280;49465;57.664;39.686;2023-06-26T06:19:12;100456.06;;;32.22;33.69
63343;BME280;49465;57.664;39.686;2023-06-26T06:21:40;100453.72;;;32.25;33.32
63343;BME280;49465;57.664;39.686;2023-06-26T06:24:06;100444.00;;;32.41;33.58
63343;BME280;49465;57.664;39.686;2023-06-26T06:26:35;100450.47;;;32.52;32.79
63343;BME280;49465;57.664;39.686;2023-06-26T06:29:05;100451.88;;;32.66;32.76
63343;BME280;49465;57.664;39.686;2023-06-26T06:31:32;100455.34;;;32.79;31.79
63343;BME280;49465;57.664;39.686;2023-06-26T06:34:01;100446.94;;;32.92;32.67
63343;BME280;49465;57.664;39.686;2023-06-26T06:36:27;100446.06;;;33.03;30.40
63343;BME280;49465;57.664;39.686;2023-06-26T06:38:57;100455.16;;;33.26;31.87
63343;BME280;49465;57.664;39.686;2023-06-26T06:41:40;100452.72;;;33.41;30.74
63343;BME280;49465;57.664;39.686;2023-06-26T06:44:07;100446.13;;;33.37;29.56
63343;BME280;49465;57.664;39.686;2023-06-26T06:46:39;100451.06;;;33.57;30.04
63343;BME280;49465;57.664;39.686;2023-06-26T06:49:05;100445.38;;;33.59;30.61
63343;BME280;49465;57.664;39.686;2023-06-26T06:51:32;100452.09;;;33.68;30.87
63343;BME280;49465;57.664;39.686;2023-06-26T06:54:00;100445.72;;;33.79;31.05
63343;BME280;49465;57.664;39.686;2023-06-26T06:56:29;100455.75;;;33.96;30.93
63343;BME280;49465;57.664;39.686;2023-06-26T06:58:59;100450.25;;;34.13;29.96
63343;BME280;49465;57.664;39.686;2023-06-26T07:01:28;100447.91;;;34.16;30.44
63343;BME280;49465;57.664;39.686;2023-06-26T07:03:57;100445.34;;;34.26;29.19
63343;BME280;49465;57.664;39.686;2023-06-26T07:06:29;100445.13;;;34.55;30.10
63343;BME280;49465;57.664;39.686;2023-06-26T07:09:09;100449.16;;;34.70;30.08
63343;BME280;49465;57.664;39.686;2023-06-26T07:11:39;100438.94;;;34.60;29.03
63343;BME280;49465;57.664;39.686;2023-06-26T07:14:17;100445.53;;;34.91;29.09
63343;BME280;49465;57.664;39.686;2023-06-26T07:16:48;100448.84;;;34.93;28.00
63343;BME280;49465;57.664;39.686;2023-06-26T07:19:20;100440.78;;;35.03;28.16
63343;BME280;49465;57.664;39.686;2023-06-26T07:21:52;100442.94;;;35.01;27.28
63343;BME280;49465;57.664;39.686;2023-06-26T07:24:29;100444.22;;;35.21;27.10
63343;BME280;49465;57.664;39.686;2023-06-26T07:27:06;100438.56;;;35.28;27.44
63343;BME280;49465;57.664;39.686;2023-06-26T07:29:35;100441.06;;;35.34;27.17
63343;BME280;49465;57.664;39.686;2023-06-26T07:32:08;100442.78;;;35.40;27.59
63343;BME280;49465;57.664;39.686;2023-06-26T07:34:40;100447.19;;;35.52;24.12
63343;BME280;49465;57.664;39.686;2023-06-26T07:37:11;100450.56;;;35.64;25.93
63343;BME280;49465;57.664;39.686;2023-06-26T07:39:43;100449.00;;;35.73;27.04
63343;BME280;49465;57.664;39.686;2023-06-26T07:42:12;100449.47;;;35.65;25.51
63343;BME280;49465;57.664;39.686;2023-06-26T07:44:47;100431.63;;;35.79;25.88
63343;BME280;49465;57.664;39.686;2023-06-26T07:47:26;100442.00;;;35.82;25.75
63343;BME280;49465;57.664;39.686;2023-06-26T07:49:59;100436.88;;;35.91;26.13
63343;BME280;49465;57.664;39.686;2023-06-26T07:52:34;100449.22;;;36.04;25.29
63343;BME280;49465;57.664;39.686;2023-06-26T07:55:08;100443.25;;;36.12;26.03
63343;BME280;49465;57.664;39.686;2023-06-26T07:57:43;100443.31;;;36.22;26.50
63343;BME280;49465;57.664;39.686;2023-06-26T08:00:19;100446.13;;;36.38;24.85
63343;BME280;49465;57.664;39.686;2023-06-26T08:02:52;100439.31;;;36.40;24.79
63343;BME280;49465;57.664;39.686;2023-06-26T08:05:21;100444.25;;;36.54;25.79
63343;BME280;49465;57.664;39.686;2023-06-26T08:07:53;100440.44;;;36.50;25.25
63343;BME280;49465;57.664;39.686;2023-06-26T08:10:22;100434.19;;;36.59;25.70
63343;BME280;49465;57.664;39.686;2023-06-26T08:12:59;100446.84;;;36.86;25.71
63343;BME280;49465;57.664;39.686;2023-06-26T08:15:25;100441.34;;;36.81;25.46
63343;BME280;49465;57.664;39.686;2023-06-26T08:17:55;100440.81;;;36.79;25.20
63343;BME280;49465;57.664;39.686;2023-06-26T08:20:26;100444.66;;;36.88;25.15
63343;BME280;49465;57.664;39.686;2023-06-26T08:23:08;100444.66;;;36.88;25.11
63343;BME280;49465;57.664;39.686;2023-06-26T08:25:57;100443.88;;;37.08;25.61
63343;BME280;49465;57.664;39.686;2023-06-26T08:28:24;100439.72;;;36.75;23.68
63343;BME280;49465;57.664;39.686;2023-06-26T08:30:56;100441.91;;;36.78;23.37
63343;BME280;49465;57.664;39.686;2023-06-26T08:33:28;100438.69;;;37.01;24.02
63343;BME280;49465;57.664;39.686;2023-06-26T08:36:03;100438.97;;;37.05;24.37
63343;BME280;49465;57.664;39.686;2023-06-26T08:38:35;100437.88;;;37.01;24.76
63343;BME280;49465;57.664;39.686;2023-06-26T08:41:07;100446.63;;;37.18;24.64
63343;BME280;49465;57.664;39.686;2023-06-26T08:43:37;100437.63;;;37.18;25.01
63343;BME280;49465;57.664;39.686;2023-06-26T08:46:09;100438.72;;;37.43;24.91
63343;BME280;49465;57.664;39.686;2023-06-26T08:48:38;100438.16;;;37.46;24.42
63343;BME280;49465;57.664;39.686;2023-06-26T08:51:24;100442.00;;;37.70;24.34
63343;BME280;49465;57.664;39.686;2023-06-26T08:54:02;100428.59;;;37.64;23.79
63343;BME280;49465;57.664;39.686;2023-06-26T08:56:51;100437.84;;;37.93;24.29
63343;BME280;49465;57.664;39.686;2023-06-26T08:59:21;100436.81;;;37.74;22.95
63343;BME280;49465;57.664;39.686;2023-06-26T09:01:48;100436.53;;;37.70;22.97
63343;BME280;49465;57.664;39.686;2023-06-26T09:04:14;100434.88;;;37.69;22.70
63343;BME280;49465;57.664;39.686;2023-06-26T09:06:46;100443.06;;;37.85;22.98
63343;BME280;49465;57.664;39.686;2023-06-26T09:09:15;100432.13;;;37.69;22.18
63343;BME280;49465;57.664;39.686;2023-06-26T09:11:41;100431.63;;;37.62;22.47
63343;BME280;49465;57.664;39.686;2023-06-26T09:14:11;100432.72;;;37.66;22.12
63343;BME280;49465;57.664;39.686;2023-06-26T09:16:42;100433.78;;;37.55;21.42
63343;BME280;49465;57.664;39.686;2023-06-26T09:19:17;100434.34;;;37.42;22.93
63343;BME280;49465;57.664;39.686;2023-06-26T09:21:52;100420.69;;;37.36;20.99
63343;BME280;49465;57.664;39.686;2023-06-26T09:24:25;100429.13;;;37.14;21.17
63343;BME280;49465;57.664;39.686;2023-06-26T09:26:57;100416.53;;;36.98;21.41
63343;BME280;49465;57.664;39.686;2023-06-26T09:29:26;100408.59;;;36.76;22.48
63343;BME280;49465;57.664;39.686;2023-06-26T09:31:56;100423.53;;;36.63;22.52
63343;BME280;49465;57.664;39.686;2023-06-26T09:34:40;100413.69;;;36.57;21.51
63343;BME280;49465;57.664;39.686;2023-06-26T09:37:10;100414.91;;;36.18;23.24
63343;BME280;49465;57.664;39.686;2023-06-26T09:39:39;100417.16;;;36.27;22.41
63343;BME280;49465;57.664;39.686;2023-06-26T09:42:14;100411.75;;;36.37;22.44
63343;BME280;49465;57.664;39.686;2023-06-26T09:44:47;100414.19;;;36.38;22.21
63343;BME280;49465;57.664;39.686;2023-06-26T09:47:20;100422.41;;;36.38;23.77
63343;BME280;49465;57.664;39.686;2023-06-26T09:49:51;100420.19;;;36.35;23.31
63343;BME280;49465;57.664;39.686;2023-06-26T09:52:25;100419.38;;;36.35;24.00
63343;BME280;49465;57.664;39.686;2023-06-26T09:55:08;100413.44;;;36.58;21.82
63343;BME280;49465;57.664;39.686;2023-06-26T09:57:38;100407.59;;;36.24;22.32
63343;BME280;49465;57.664;39.686;2023-06-26T10:00:12;100416.16;;;36.53;22.55
63343;BME280;49465;57.664;39.686;2023-06-26T10:02:42;100412.88;;;36.51;23.71
63343;BME280;49465;57.664;39.686;2023-06-26T10:05:11;100411.72;;;36.42;23.50
63343;BME280;49465;57.664;39.686;2023-06-26T10:07:46;100420.25;;;36.51;23.88
63343;BME280;49465;57.664;39.686;2023-06-26T10:10:19;100416.38;;;36.41;23.08
63343;BME280;49465;57.664;39.686;2023-06-26T10:12:49;100417.66;;;37.12;23.68
63343;BME280;49465;57.664;39.686;2023-06-26T10:15:21;100408.75;;;36.38;24.09
63343;BME280;49465;57.664;39.686;2023-06-26T10:17:56;100415.03;;;36.49;23.26
63343;BME280;49465;57.664;39.686;2023-06-26T10:20:26;100422.66;;;36.37;22.42
63343;BME280;49465;57.664;39.686;2023-06-26T10:23:01;100416.94;;;36.43;22.77
63343;BME280;49465;57.664;39.686;2023-06-26T10:25:34;100413.38;;;36.33;22.50
63343;BME280;49465;57.664;39.686;2023-06-26T10:28:06;100418.03;;;36.42;22.30
63343;BME280;49465;57.664;39.686;2023-06-26T10:30:40;100408.44;;;36.30;22.25
63343;BME280;49465;57.664;39.686;2023-06-26T10:33:19;100408.16;;;36.31;21.10
63343;BME280;49465;57.664;39.686;2023-06-26T10:35:48;100410.56;;;36.22;22.03
63343;BME280;49465;57.664;39.686;2023-06-26T10:38:18;100403.50;;;36.21;22.62
63343;BME280;49465;57.664;39.686;2023-06-26T10:40:56;100406.56;;;36.46;22.71
63343;BME280;49465;57.664;39.686;2023-06-26T10:43:29;100415.19;;;37.26;21.93
63343;BME280;49465;57.664;39.686;2023-06-26T10:46:02;100407.41;;;36.61;22.17
63343;BME280;49465;57.664;39.686;2023-06-26T10:48:29;100402.72;;;36.41;23.22
63343;BME280;49465;57.664;39.686;2023-06-26T10:51:13;100404.22;;;36.80;22.42
63343;BME280;49465;57.664;39.686;2023-06-26T10:53:56;100399.84;;;36.74;23.34
63343;BME280;49465;57.664;39.686;2023-06-26T10:56:47;100403.94;;;36.87;21.75
63343;BME280;49465;57.664;39.686;2023-06-26T10:59:23;100404.47;;;36.68;21.20
63343;BME280;49465;57.664;39.686;2023-06-26T11:02:01;100401.50;;;36.70;22.93
63343;BME280;49465;57.664;39.686;2023-06-26T11:04:50;100398.50;;;36.81;23.28
63343;BME280;49465;57.664;39.686;2023-06-26T11:07:26;100397.06;;;36.63;22.65
63343;BME280;49465;57.664;39.686;2023-06-26T11:10:05;100393.31;;;36.80;23.08
63343;BME280;49465;57.664;39.686;2023-06-26T11:12:43;100398.50;;;36.87;22.42
63343;BME280;49465;57.664;39.686;2023-06-26T11:15:16;100400.94;;;36.78;20.82
63343;BME280;49465;57.664;39.686;2023-06-26T11:17:54;100393.28;;;36.75;21.58
63343;BME280;49465;57.664;39.686;2023-06-26T11:20:23;100395.13;;;36.54;22.48
63343;BME280;49465;57.664;39.686;2023-06-26T11:22:53;100391.31;;;36.55;21.05
63343;BME280;49465;57.664;39.686;2023-06-26T11:25:27;100392.63;;;36.42;21.07
63343;BME280;49465;57.664;39.686;2023-06-26T11:27:56;100389.13;;;36.47;21.81
63343;BME280;49465;57.664;39.686;2023-06-26T11:30:26;100392.97;;;36.56;21.43
63343;BME280;49465;57.664;39.686;2023-06-26T11:33:06;100391.38;;;36.75;21.15
63343;BME280;49465;57.664;39.686;2023-06-26T11:35:35;100383.88;;;36.40;21.92
63343;BME280;49465;57.664;39.686;2023-06-26T11:38:05;100385.00;;;36.39;22.12
63343;BME280;49465;57.664;39.686;2023-06-26T11:40:36;100379.53;;;36.44;21.35
63343;BME280;49465;57.664;39.686;2023-06-26T11:43:15;100381.50;;;36.59;21.76
63343;BME280;49465;57.664;39.686;2023-06-26T11:45:47;100382.38;;;36.70;21.21
63343;BME280;49465;57.664;39.686;2023-06-26T11:48:15;100376.84;;;36.59;21.22
63343;BME280;49465;57.664;39.686;2023-06-26T11:50:50;100365.91;;;36.59;21.16
63343;BME280;49465;57.664;39.686;2023-06-26T11:53:27;100384.50;;;36.62;20.61
63343;BME280;49465;57.664;39.686;2023-06-26T11:56:00;100380.94;;;36.57;20.65
63343;BME280;49465;57.664;39.686;2023-06-26T12:04:11;100376.13;;;36.11;21.17
63343;BME280;49465;57.664;39.686;2023-06-26T12:06:53;100370.91;;;36.04;21.92
63343;BME280;49465;57.664;39.686;2023-06-26T12:09:26;100357.56;;;36.03;22.52
63343;BME280;49465;57.664;39.686;2023-06-26T12:11:57;100364.72;;;36.19;21.03
63343;BME280;49465;57.664;39.686;2023-06-26T12:14:32;100363.28;;;36.07;20.87
63343;BME280;49465;57.664;39.686;2023-06-26T12:17:10;100361.22;;;36.29;21.54
63343;BME280;49465;57.664;39.686;2023-06-26T12:19:55;100365.31;;;36.32;21.22
63343;BME280;49465;57.664;39.686;2023-06-26T12:22:34;100369.09;;;36.20;21.20
63343;BME280;49465;57.664;39.686;2023-06-26T12:25:07;100361.66;;;36.11;20.10
63343;BME280;49465;57.664;39.686;2023-06-26T12:27:39;100358.72;;;36.17;21.45
63343;BME280;49465;57.664;39.686;2023-06-26T12:30:11;100355.41;;;36.15;22.04
63343;BME280;49465;57.664;39.686;2023-06-26T12:32:55;100358.25;;;36.41;22.11
63343;BME280;49465;57.664;39.686;2023-06-26T12:35:24;100351.63;;;36.16;21.69
63343;BME280;49465;57.664;39.686;2023-06-26T12:37:59;100348.41;;;36.40;20.99
63343;BME280;49465;57.664;39.686;2023-06-26T12:40:32;100346.22;;;36.27;20.10
63343;BME280;49465;57.664;39.686;2023-06-26T12:43:04;100353.34;;;36.43;21.59
63343;BME280;49465;57.664;39.686;2023-06-26T12:45:38;100345.97;;;36.54;21.74
63343;BME280;49465;57.664;39.686;2023-06-26T12:48:12;100342.69;;;36.41;20.43
63343;BME280;49465;57.664;39.686;2023-06-26T12:50:47;100341.84;;;36.31;20.78
63343;BME280;49465;57.664;39.686;2023-06-26T12:53:40;100345.91;;;36.18;19.61
63343;BME280;49465;57.664;39.686;2023-06-26T12:56:34;100343.81;;;36.51;19.67
63343;BME280;49465;57.664;39.686;2023-06-26T12:59:04;100338.44;;;35.98;20.24
63343;BME280;49465;57.664;39.686;2023-06-26T13:01:36;100338.22;;;36.15;21.25
63343;BME280;49465;57.664;39.686;2023-06-26T13:04:06;100333.00;;;36.03;20.94
63343;BME280;49465;57.664;39.686;2023-06-26T13:06:40;100337.38;;;36.09;20.05
63343;BME280;49465;57.664;39.686;2023-06-26T13:09:07;100330.72;;;35.84;20.09
63343;BME280;49465;57.664;39.686;2023-06-26T13:11:42;100324.75;;;35.88;20.02